sensor_id;sensor_type;location;lat;lon;timestamp;P1;durP1;ratioP1;P2;durP2;ratioP2
21729;SDS011;11027;51.030;13.812;2023-05-15T00:00:30;4.25;;;3.13;;
21729;SDS011;11027;51.030;13.812;2023-05-15T00:02:56;5.53;;;3.40;;
21729;SDS011;11027;51.030;13.812;2023-05-15T00:05:21;7.90;;;3.33;;
21729;SDS011;11027;51.030;13.812;2023-05-15T00:07:46;4.57;;;3.03;;
21729;SDS011;11027;51.030;13.812;2023-05-15T00:10:12;5.72;;;3.28;;
21729;SDS011;11027;51.030;13.812;2023-05-15T00:12:37;5.15;;;2.92;;
21729;SDS011;11027;51.030;13.812;2023-05-15T00:15:02;4.32;;;3.00;;
21729;SDS011;11027;51.030;13.812;2023-05-15T00:17:28;3.35;;;3.05;;
21729;SDS011;11027;51.030;13.812;2023-05-15T00:19:53;5.10;;;3.00;;
21729;SDS011;11027;51.030;13.812;2023-05-15T00:22:21;3.30;;;3.00;;
21729;SDS011;11027;51.030;13.812;2023-05-15T00:24:47;3.20;;;2.90;;
21729;SDS011;11027;51.030;13.812;2023-05-15T00:27:12;4.38;;;3.13;;
21729;SDS011;11027;51.030;13.812;2023-05-15T00:29:37;4.57;;;2.95;;
21729;SDS011;11027;51.030;13.812;2023-05-15T00:32:03;5.63;;;2.80;;
21729;SDS011;11027;51.030;13.812;2023-05-15T00:34:28;3.67;;;3.20;;
21729;SDS011;11027;51.030;13.812;2023-05-15T00:36:53;3.95;;;3.17;;
21729;SDS011;11027;51.030;13.812;2023-05-15T00:39:19;4.22;;;3.33;;
21729;SDS011;11027;51.030;13.812;2023-05-15T00:41:44;3.78;;;3.00;;
21729;SDS011;11027;51.030;13.812;2023-05-15T00:44:12;3.33;;;3.03;;
21729;SDS011;11027;51.030;13.812;2023-05-15T00:46:40;5.32;;;3.10;;
21729;SDS011;11027;51.030;13.812;2023-05-15T00:49:06;3.78;;;3.25;;
21729;SDS011;11027;51.030;13.812;2023-05-15T00:51:37;7.70;;;3.28;;
21729;SDS011;11027;51.030;13.812;2023-05-15T00:54:04;3.90;;;3.20;;
21729;SDS011;11027;51.030;13.812;2023-05-15T00:56:31;4.13;;;3.35;;
21729;SDS011;11027;51.030;13.812;2023-05-15T00:58:57;4.13;;;3.00;;
21729;SDS011;11027;51.030;13.812;2023-05-15T01:01:24;4.13;;;2.92;;
21729;SDS011;11027;51.030;13.812;2023-05-15T01:03:50;4.53;;;3.10;;
21729;SDS011;11027;51.030;13.812;2023-05-15T01:06:15;5.97;;;3.50;;
21729;SDS011;11027;51.030;13.812;2023-05-15T01:08:41;3.95;;;3.10;;
21729;SDS011;11027;51.030;13.812;2023-05-15T01:11:09;4.07;;;3.45;;
21729;SDS011;11027;51.030;13.812;2023-05-15T01:13:36;6.82;;;3.47;;
21729;SDS011;11027;51.030;13.812;2023-05-15T01:16:01;4.10;;;3.28;;
21729;SDS011;11027;51.030;13.812;2023-05-15T01:18:27;3.60;;;3.30;;
21729;SDS011;11027;51.030;13.812;2023-05-15T01:24:20;8.40;;;3.15;;
21729;SDS011;11027;51.030;13.812;2023-05-15T01:27:15;3.50;;;3.10;;
21729;SDS011;11027;51.030;13.812;2023-05-15T01:30:03;3.47;;;3.10;;
21729;SDS011;11027;51.030;13.812;2023-05-15T01:35:22;3.30;;;3.00;;
21729;SDS011;11027;51.030;13.812;2023-05-15T01:37:54;6.55;;;3.45;;
21729;SDS011;11027;51.030;13.812;2023-05-15T01:40:42;3.45;;;3.13;;
21729;SDS011;11027;51.030;13.812;2023-05-15T01:43:14;4.88;;;2.92;;
21729;SDS011;11027;51.030;13.812;2023-05-15T01:45:42;4.03;;;3.30;;
21729;SDS011;11027;51.030;13.812;2023-05-15T01:48:08;4.30;;;3.33;;
21729;SDS011;11027;51.030;13.812;2023-05-15T01:50:36;4.28;;;3.03;;
21729;SDS011;11027;51.030;13.812;2023-05-15T01:53:03;3.30;;;3.00;;
21729;SDS011;11027;51.030;13.812;2023-05-15T01:55:31;3.50;;;3.20;;
21729;SDS011;11027;51.030;13.812;2023-05-15T01:57:59;4.28;;;3.30;;
21729;SDS011;11027;51.030;13.812;2023-05-15T02:00:25;3.70;;;3.40;;
21729;SDS011;11027;51.030;13.812;2023-05-15T02:02:50;3.92;;;3.53;;
21729;SDS011;11027;51.030;13.812;2023-05-15T02:05:17;7.00;;;3.33;;
21729;SDS011;11027;51.030;13.812;2023-05-15T02:07:43;4.15;;;3.17;;
21729;SDS011;11027;51.030;13.812;2023-05-15T02:10:10;3.95;;;3.42;;
21729;SDS011;11027;51.030;13.812;2023-05-15T02:12:37;5.07;;;2.97;;
21729;SDS011;11027;51.030;13.812;2023-05-15T02:15:04;4.68;;;3.30;;
21729;SDS011;11027;51.030;13.812;2023-05-15T02:17:32;3.58;;;3.25;;
21729;SDS011;11027;51.030;13.812;2023-05-15T02:19:57;3.35;;;3.05;;
21729;SDS011;11027;51.030;13.812;2023-05-15T02:22:23;5.47;;;3.28;;
21729;SDS011;11027;51.030;13.812;2023-05-15T02:24:48;5.75;;;3.20;;
21729;SDS011;11027;51.030;13.812;2023-05-15T02:27:19;4.03;;;3.42;;
21729;SDS011;11027;51.030;13.812;2023-05-15T02:30:01;4.43;;;3.38;;
21729;SDS011;11027;51.030;13.812;2023-05-15T02:32:44;3.65;;;3.33;;
21729;SDS011;11027;51.030;13.812;2023-05-15T02:37:59;4.05;;;3.42;;
21729;SDS011;11027;51.030;13.812;2023-05-15T02:40:29;6.05;;;3.53;;
21729;SDS011;11027;51.030;13.812;2023-05-15T02:42:56;4.90;;;3.40;;
21729;SDS011;11027;51.030;13.812;2023-05-15T02:45:22;3.60;;;3.30;;
21729;SDS011;11027;51.030;13.812;2023-05-15T02:47:48;6.38;;;3.80;;
21729;SDS011;11027;51.030;13.812;2023-05-15T02:50:15;3.88;;;3.45;;
21729;SDS011;11027;51.030;13.812;2023-05-15T02:52:41;4.30;;;3.42;;
21729;SDS011;11027;51.030;13.812;2023-05-15T02:55:06;4.35;;;3.70;;
21729;SDS011;11027;51.030;13.812;2023-05-15T02:57:32;4.88;;;3.97;;
21729;SDS011;11027;51.030;13.812;2023-05-15T02:59:57;4.80;;;3.90;;
21729;SDS011;11027;51.030;13.812;2023-05-15T03:02:24;4.80;;;3.70;;
21729;SDS011;11027;51.030;13.812;2023-05-15T03:04:49;4.55;;;3.58;;
21729;SDS011;11027;51.030;13.812;2023-05-15T03:07:15;8.70;;;3.55;;
21729;SDS011;11027;51.030;13.812;2023-05-15T03:09:40;3.95;;;3.53;;
21729;SDS011;11027;51.030;13.812;2023-05-15T03:12:06;6.60;;;3.88;;
21729;SDS011;11027;51.030;13.812;2023-05-15T03:14:32;6.32;;;3.95;;
21729;SDS011;11027;51.030;13.812;2023-05-15T03:16:57;6.82;;;4.00;;
21729;SDS011;11027;51.030;13.812;2023-05-15T03:19:22;4.32;;;3.17;;
21729;SDS011;11027;51.030;13.812;2023-05-15T03:21:48;3.60;;;3.30;;
21729;SDS011;11027;51.030;13.812;2023-05-15T03:24:13;4.03;;;3.63;;
21729;SDS011;11027;51.030;13.812;2023-05-15T03:26:38;3.97;;;3.10;;
21729;SDS011;11027;51.030;13.812;2023-05-15T03:29:04;5.32;;;3.40;;
21729;SDS011;11027;51.030;13.812;2023-05-15T03:31:30;7.35;;;3.40;;
21729;SDS011;11027;51.030;13.812;2023-05-15T03:33:55;3.63;;;3.13;;
21729;SDS011;11027;51.030;13.812;2023-05-15T03:36:20;4.30;;;3.53;;
21729;SDS011;11027;51.030;13.812;2023-05-15T03:38:46;4.00;;;3.60;;
21729;SDS011;11027;51.030;13.812;2023-05-15T03:41:11;4.75;;;3.45;;
21729;SDS011;11027;51.030;13.812;2023-05-15T03:43:36;4.78;;;3.65;;
21729;SDS011;11027;51.030;13.812;2023-05-15T03:46:02;4.57;;;3.38;;
21729;SDS011;11027;51.030;13.812;2023-05-15T03:48:27;3.75;;;3.45;;
21729;SDS011;11027;51.030;13.812;2023-05-15T03:50:52;4.22;;;3.40;;
21729;SDS011;11027;51.030;13.812;2023-05-15T03:53:18;4.53;;;3.40;;
21729;SDS011;11027;51.030;13.812;2023-05-15T03:55:43;4.53;;;3.25;;
21729;SDS011;11027;51.030;13.812;2023-05-15T03:58:08;3.85;;;3.30;;
21729;SDS011;11027;51.030;13.812;2023-05-15T04:00:34;5.20;;;3.00;;
21729;SDS011;11027;51.030;13.812;2023-05-15T04:03:00;4.38;;;3.05;;
21729;SDS011;11027;51.030;13.812;2023-05-15T04:05:25;5.53;;;3.53;;
21729;SDS011;11027;51.030;13.812;2023-05-15T04:07:50;4.68;;;3.30;;
21729;SDS011;11027;51.030;13.812;2023-05-15T04:10:16;3.92;;;3.63;;
21729;SDS011;11027;51.030;13.812;2023-05-15T04:12:41;20.30;;;3.70;;
21729;SDS011;11027;51.030;13.812;2023-05-15T04:15:13;6.78;;;3.45;;
21729;SDS011;11027;51.030;13.812;2023-05-15T04:17:42;5.00;;;3.90;;
21729;SDS011;11027;51.030;13.812;2023-05-15T04:20:08;5.88;;;3.83;;
21729;SDS011;11027;51.030;13.812;2023-05-15T04:22:35;4.75;;;4.30;;
21729;SDS011;11027;51.030;13.812;2023-05-15T04:25:00;5.07;;;3.83;;
21729;SDS011;11027;51.030;13.812;2023-05-15T04:27:26;6.32;;;3.88;;
21729;SDS011;11027;51.030;13.812;2023-05-15T04:29:51;4.43;;;3.60;;
21729;SDS011;11027;51.030;13.812;2023-05-15T04:32:17;4.20;;;3.80;;
21729;SDS011;11027;51.030;13.812;2023-05-15T04:34:42;4.18;;;3.70;;
21729;SDS011;11027;51.030;13.812;2023-05-15T04:37:07;6.05;;;3.80;;
21729;SDS011;11027;51.030;13.812;2023-05-15T04:39:33;4.20;;;3.80;;
21729;SDS011;11027;51.030;13.812;2023-05-15T04:41:58;3.97;;;3.65;;
21729;SDS011;11027;51.030;13.812;2023-05-15T04:44:23;4.00;;;3.60;;
21729;SDS011;11027;51.030;13.812;2023-05-15T04:46:48;5.40;;;3.85;;
21729;SDS011;11027;51.030;13.812;2023-05-15T04:49:14;6.07;;;4.30;;
21729;SDS011;11027;51.030;13.812;2023-05-15T04:51:39;8.10;;;4.15;;
21729;SDS011;11027;51.030;13.812;2023-05-15T04:54:05;4.82;;;4.15;;
21729;SDS011;11027;51.030;13.812;2023-05-15T04:56:31;4.18;;;3.80;;
21729;SDS011;11027;51.030;13.812;2023-05-15T04:58:56;4.35;;;3.78;;
21729;SDS011;11027;51.030;13.812;2023-05-15T05:01:21;4.10;;;3.70;;
21729;SDS011;11027;51.030;13.812;2023-05-15T05:03:47;4.22;;;3.80;;
21729;SDS011;11027;51.030;13.812;2023-05-15T05:06:12;5.22;;;3.72;;
21729;SDS011;11027;51.030;13.812;2023-05-15T05:08:37;4.97;;;3.70;;
21729;SDS011;11027;51.030;13.812;2023-05-15T05:11:02;4.05;;;3.60;;
21729;SDS011;11027;51.030;13.812;2023-05-15T05:13:28;5.55;;;3.53;;
21729;SDS011;11027;51.030;13.812;2023-05-15T05:15:53;4.45;;;3.47;;
21729;SDS011;11027;51.030;13.812;2023-05-15T05:18:18;4.93;;;3.90;;
21729;SDS011;11027;51.030;13.812;2023-05-15T05:20:43;7.68;;;4.40;;
21729;SDS011;11027;51.030;13.812;2023-05-15T05:23:08;4.68;;;4.13;;
21729;SDS011;11027;51.030;13.812;2023-05-15T05:25:34;5.20;;;4.03;;
21729;SDS011;11027;51.030;13.812;2023-05-15T05:27:59;4.35;;;3.78;;
21729;SDS011;11027;51.030;13.812;2023-05-15T05:30:24;4.82;;;3.90;;
21729;SDS011;11027;51.030;13.812;2023-05-15T05:32:50;4.90;;;3.85;;
21729;SDS011;11027;51.030;13.812;2023-05-15T05:35:15;4.75;;;4.30;;
21729;SDS011;11027;51.030;13.812;2023-05-15T05:37:40;4.40;;;4.00;;
21729;SDS011;11027;51.030;13.812;2023-05-15T05:40:05;4.80;;;4.40;;
21729;SDS011;11027;51.030;13.812;2023-05-15T05:42:32;5.15;;;4.70;;
21729;SDS011;11027;51.030;13.812;2023-05-15T05:44:57;4.93;;;4.45;;
21729;SDS011;11027;51.030;13.812;2023-05-15T05:47:23;6.43;;;4.07;;
21729;SDS011;11027;51.030;13.812;2023-05-15T05:49:48;5.40;;;4.65;;
21729;SDS011;11027;51.030;13.812;2023-05-15T05:52:13;6.97;;;4.53;;
21729;SDS011;11027;51.030;13.812;2023-05-15T05:54:40;4.53;;;4.13;;
21729;SDS011;11027;51.030;13.812;2023-05-15T05:57:05;6.05;;;4.15;;
21729;SDS011;11027;51.030;13.812;2023-05-15T05:59:31;6.35;;;4.78;;
21729;SDS011;11027;51.030;13.812;2023-05-15T06:01:56;6.45;;;5.00;;
21729;SDS011;11027;51.030;13.812;2023-05-15T06:04:22;4.88;;;4.05;;
21729;SDS011;11027;51.030;13.812;2023-05-15T06:06:47;6.07;;;4.82;;
21729;SDS011;11027;51.030;13.812;2023-05-15T06:09:13;9.88;;;4.70;;
21729;SDS011;11027;51.030;13.812;2023-05-15T06:11:39;13.98;;;5.38;;
21729;SDS011;11027;51.030;13.812;2023-05-15T06:14:04;11.38;;;4.63;;
21729;SDS011;11027;51.030;13.812;2023-05-15T06:16:32;17.13;;;4.85;;
21729;SDS011;11027;51.030;13.812;2023-05-15T06:18:57;6.32;;;4.63;;
21729;SDS011;11027;51.030;13.812;2023-05-15T06:21:22;6.22;;;4.55;;
21729;SDS011;11027;51.030;13.812;2023-05-15T06:23:48;6.15;;;5.30;;
21729;SDS011;11027;51.030;13.812;2023-05-15T06:26:13;5.47;;;4.93;;
21729;SDS011;11027;51.030;13.812;2023-05-15T06:28:38;9.05;;;4.80;;
21729;SDS011;11027;51.030;13.812;2023-05-15T06:31:04;6.30;;;5.10;;
21729;SDS011;11027;51.030;13.812;2023-05-15T06:33:29;6.00;;;4.75;;
21729;SDS011;11027;51.030;13.812;2023-05-15T06:35:55;10.43;;;5.30;;
21729;SDS011;11027;51.030;13.812;2023-05-15T06:38:20;8.15;;;5.05;;
21729;SDS011;11027;51.030;13.812;2023-05-15T06:40:45;6.82;;;5.22;;
21729;SDS011;11027;51.030;13.812;2023-05-15T06:43:11;8.32;;;5.03;;
21729;SDS011;11027;51.030;13.812;2023-05-15T06:45:36;5.30;;;4.47;;
21729;SDS011;11027;51.030;13.812;2023-05-15T06:48:01;7.38;;;5.15;;
21729;SDS011;11027;51.030;13.812;2023-05-15T06:50:27;6.47;;;5.20;;
21729;SDS011;11027;51.030;13.812;2023-05-15T06:52:52;6.35;;;5.25;;
21729;SDS011;11027;51.030;13.812;2023-05-15T06:55:18;8.68;;;5.43;;
21729;SDS011;11027;51.030;13.812;2023-05-15T06:57:43;8.60;;;5.22;;
21729;SDS011;11027;51.030;13.812;2023-05-15T07:00:09;8.52;;;5.15;;
21729;SDS011;11027;51.030;13.812;2023-05-15T07:02:35;10.85;;;5.25;;
21729;SDS011;11027;51.030;13.812;2023-05-15T07:05:00;10.20;;;5.50;;
21729;SDS011;11027;51.030;13.812;2023-05-15T07:07:26;9.48;;;5.10;;
21729;SDS011;11027;51.030;13.812;2023-05-15T07:09:51;5.15;;;4.65;;
21729;SDS011;11027;51.030;13.812;2023-05-15T07:12:16;5.75;;;4.35;;
21729;SDS011;11027;51.030;13.812;2023-05-15T07:14:41;6.43;;;4.60;;
21729;SDS011;11027;51.030;13.812;2023-05-15T07:17:07;7.82;;;5.15;;
21729;SDS011;11027;51.030;13.812;2023-05-15T07:19:32;6.05;;;4.75;;
21729;SDS011;11027;51.030;13.812;2023-05-15T07:21:57;8.02;;;5.57;;
21729;SDS011;11027;51.030;13.812;2023-05-15T07:24:22;7.15;;;5.30;;
21729;SDS011;11027;51.030;13.812;2023-05-15T07:26:48;7.32;;;5.63;;
21729;SDS011;11027;51.030;13.812;2023-05-15T07:29:13;7.15;;;5.28;;
21729;SDS011;11027;51.030;13.812;2023-05-15T07:31:39;5.90;;;5.30;;
21729;SDS011;11027;51.030;13.812;2023-05-15T07:34:05;11.88;;;5.20;;
21729;SDS011;11027;51.030;13.812;2023-05-15T07:36:31;10.65;;;5.57;;
21729;SDS011;11027;51.030;13.812;2023-05-15T07:38:57;5.93;;;5.32;;
21729;SDS011;11027;51.030;13.812;2023-05-15T07:41:22;9.35;;;5.75;;
21729;SDS011;11027;51.030;13.812;2023-05-15T07:43:47;10.43;;;5.45;;
21729;SDS011;11027;51.030;13.812;2023-05-15T07:46:12;10.23;;;5.75;;
21729;SDS011;11027;51.030;13.812;2023-05-15T07:48:38;9.60;;;5.32;;
21729;SDS011;11027;51.030;13.812;2023-05-15T07:51:03;9.20;;;4.95;;
21729;SDS011;11027;51.030;13.812;2023-05-15T07:53:28;10.43;;;5.20;;
21729;SDS011;11027;51.030;13.812;2023-05-15T07:55:54;10.57;;;5.25;;
21729;SDS011;11027;51.030;13.812;2023-05-15T07:58:19;10.50;;;5.00;;
21729;SDS011;11027;51.030;13.812;2023-05-15T08:00:45;9.18;;;4.57;;
21729;SDS011;11027;51.030;13.812;2023-05-15T08:03:10;6.65;;;4.82;;
21729;SDS011;11027;51.030;13.812;2023-05-15T08:05:36;8.50;;;4.82;;
21729;SDS011;11027;51.030;13.812;2023-05-15T08:08:01;12.23;;;5.15;;
21729;SDS011;11027;51.030;13.812;2023-05-15T08:10:26;11.48;;;5.40;;
21729;SDS011;11027;51.030;13.812;2023-05-15T08:12:51;10.10;;;4.40;;
21729;SDS011;11027;51.030;13.812;2023-05-15T08:15:17;15.80;;;4.88;;
21729;SDS011;11027;51.030;13.812;2023-05-15T08:17:42;8.80;;;5.18;;
21729;SDS011;11027;51.030;13.812;2023-05-15T08:20:07;8.63;;;4.68;;
21729;SDS011;11027;51.030;13.812;2023-05-15T08:22:33;7.90;;;4.90;;
21729;SDS011;11027;51.030;13.812;2023-05-15T08:24:59;10.07;;;4.97;;
21729;SDS011;11027;51.030;13.812;2023-05-15T08:27:25;8.77;;;5.10;;
21729;SDS011;11027;51.030;13.812;2023-05-15T08:29:50;10.05;;;5.15;;
21729;SDS011;11027;51.030;13.812;2023-05-15T08:32:16;9.23;;;5.03;;
21729;SDS011;11027;51.030;13.812;2023-05-15T08:34:42;6.70;;;5.05;;
21729;SDS011;11027;51.030;13.812;2023-05-15T08:37:07;6.38;;;5.10;;
21729;SDS011;11027;51.030;13.812;2023-05-15T08:39:32;7.68;;;5.22;;
21729;SDS011;11027;51.030;13.812;2023-05-15T08:42:07;7.90;;;4.80;;
21729;SDS011;11027;51.030;13.812;2023-05-15T08:44:43;13.70;;;5.38;;
21729;SDS011;11027;51.030;13.812;2023-05-15T08:47:08;11.05;;;6.05;;
21729;SDS011;11027;51.030;13.812;2023-05-15T08:49:35;19.38;;;5.63;;
21729;SDS011;11027;51.030;13.812;2023-05-15T08:52:24;7.60;;;5.55;;
21729;SDS011;11027;51.030;13.812;2023-05-15T08:54:50;7.53;;;5.28;;
21729;SDS011;11027;51.030;13.812;2023-05-15T08:57:16;11.30;;;5.82;;
21729;SDS011;11027;51.030;13.812;2023-05-15T08:59:42;6.97;;;5.15;;
21729;SDS011;11027;51.030;13.812;2023-05-15T09:02:07;9.02;;;5.57;;
21729;SDS011;11027;51.030;13.812;2023-05-15T09:04:33;9.30;;;5.30;;
21729;SDS011;11027;51.030;13.812;2023-05-15T09:06:59;6.53;;;5.07;;
21729;SDS011;11027;51.030;13.812;2023-05-15T09:09:25;7.57;;;5.18;;
21729;SDS011;11027;51.030;13.812;2023-05-15T09:11:51;10.88;;;5.60;;
21729;SDS011;11027;51.030;13.812;2023-05-15T09:14:17;7.70;;;5.20;;
21729;SDS011;11027;51.030;13.812;2023-05-15T09:16:43;7.00;;;5.00;;
21729;SDS011;11027;51.030;13.812;2023-05-15T09:19:10;7.60;;;5.20;;
21729;SDS011;11027;51.030;13.812;2023-05-15T09:21:36;11.30;;;6.10;;
21729;SDS011;11027;51.030;13.812;2023-05-15T09:26:42;10.23;;;5.30;;
21729;SDS011;11027;51.030;13.812;2023-05-15T09:29:08;8.07;;;5.50;;
21729;SDS011;11027;51.030;13.812;2023-05-15T09:31:34;6.88;;;5.47;;
21729;SDS011;11027;51.030;13.812;2023-05-15T09:33:59;6.53;;;5.50;;
21729;SDS011;11027;51.030;13.812;2023-05-15T09:36:26;8.50;;;5.20;;
21729;SDS011;11027;51.030;13.812;2023-05-15T09:38:56;7.93;;;5.50;;
21729;SDS011;11027;51.030;13.812;2023-05-15T09:41:23;10.13;;;5.40;;
21729;SDS011;11027;51.030;13.812;2023-05-15T09:43:49;9.48;;;5.70;;
21729;SDS011;11027;51.030;13.812;2023-05-15T09:46:15;8.52;;;5.78;;
21729;SDS011;11027;51.030;13.812;2023-05-15T09:48:41;9.10;;;5.78;;
21729;SDS011;11027;51.030;13.812;2023-05-15T09:51:13;6.38;;;5.63;;
21729;SDS011;11027;51.030;13.812;2023-05-15T09:53:46;10.40;;;5.97;;
21729;SDS011;11027;51.030;13.812;2023-05-15T09:56:18;6.90;;;6.03;;
21729;SDS011;11027;51.030;13.812;2023-05-15T09:58:53;7.95;;;6.00;;
21729;SDS011;11027;51.030;13.812;2023-05-15T10:01:20;9.63;;;5.68;;
21729;SDS011;11027;51.030;13.812;2023-05-15T10:03:56;7.68;;;5.40;;
21729;SDS011;11027;51.030;13.812;2023-05-15T10:06:25;6.88;;;5.90;;
21729;SDS011;11027;51.030;13.812;2023-05-15T10:08:51;8.20;;;5.85;;
21729;SDS011;11027;51.030;13.812;2023-05-15T10:11:17;9.30;;;5.18;;
21729;SDS011;11027;51.030;13.812;2023-05-15T10:13:43;6.90;;;5.43;;
21729;SDS011;11027;51.030;13.812;2023-05-15T10:16:09;6.75;;;5.50;;
21729;SDS011;11027;51.030;13.812;2023-05-15T10:18:37;7.47;;;4.80;;
21729;SDS011;11027;51.030;13.812;2023-05-15T10:21:04;9.02;;;4.30;;
21729;SDS011;11027;51.030;13.812;2023-05-15T10:23:33;5.07;;;4.38;;
21729;SDS011;11027;51.030;13.812;2023-05-15T10:26:01;9.00;;;4.47;;
21729;SDS011;11027;51.030;13.812;2023-05-15T10:28:29;7.05;;;4.13;;
21729;SDS011;11027;51.030;13.812;2023-05-15T10:30:57;10.88;;;4.70;;
21729;SDS011;11027;51.030;13.812;2023-05-15T10:33:25;5.65;;;4.20;;
21729;SDS011;11027;51.030;13.812;2023-05-15T10:35:51;7.80;;;4.20;;
21729;SDS011;11027;51.030;13.812;2023-05-15T10:38:18;10.13;;;4.50;;
21729;SDS011;11027;51.030;13.812;2023-05-15T10:40:44;5.18;;;4.50;;
21729;SDS011;11027;51.030;13.812;2023-05-15T10:43:11;6.03;;;4.40;;
21729;SDS011;11027;51.030;13.812;2023-05-15T10:45:38;10.65;;;5.03;;
21729;SDS011;11027;51.030;13.812;2023-05-15T10:48:03;11.02;;;4.85;;
21729;SDS011;11027;51.030;13.812;2023-05-15T10:50:31;7.88;;;5.32;;
21729;SDS011;11027;51.030;13.812;2023-05-15T10:52:57;9.30;;;4.25;;
21729;SDS011;11027;51.030;13.812;2023-05-15T10:55:22;9.77;;;4.32;;
21729;SDS011;11027;51.030;13.812;2023-05-15T10:57:47;8.13;;;4.47;;
21729;SDS011;11027;51.030;13.812;2023-05-15T11:00:23;5.95;;;4.55;;
21729;SDS011;11027;51.030;13.812;2023-05-15T11:02:49;10.25;;;4.78;;
21729;SDS011;11027;51.030;13.812;2023-05-15T11:05:17;8.85;;;4.47;;
21729;SDS011;11027;51.030;13.812;2023-05-15T11:07:43;6.32;;;4.32;;
21729;SDS011;11027;51.030;13.812;2023-05-15T11:12:55;7.65;;;3.80;;
21729;SDS011;11027;51.030;13.812;2023-05-15T11:15:25;7.68;;;4.00;;
21729;SDS011;11027;51.030;13.812;2023-05-15T11:18:06;6.75;;;3.72;;
21729;SDS011;11027;51.030;13.812;2023-05-15T11:23:05;4.28;;;3.42;;
21729;SDS011;11027;51.030;13.812;2023-05-15T11:25:30;6.00;;;3.65;;
21729;SDS011;11027;51.030;13.812;2023-05-15T11:27:56;5.53;;;3.50;;
21729;SDS011;11027;51.030;13.812;2023-05-15T11:30:22;5.05;;;3.72;;
21729;SDS011;11027;51.030;13.812;2023-05-15T11:33:07;6.38;;;3.65;;
21729;SDS011;11027;51.030;13.812;2023-05-15T11:35:38;5.88;;;3.50;;
21729;SDS011;11027;51.030;13.812;2023-05-15T11:40:47;6.82;;;3.38;;
21729;SDS011;11027;51.030;13.812;2023-05-15T11:43:18;7.05;;;3.78;;
21729;SDS011;11027;51.030;13.812;2023-05-15T11:45:46;3.90;;;3.50;;
21729;SDS011;11027;51.030;13.812;2023-05-15T11:50:42;6.95;;;3.63;;
21729;SDS011;11027;51.030;13.812;2023-05-15T11:53:09;5.57;;;4.00;;
21729;SDS011;11027;51.030;13.812;2023-05-15T11:55:35;7.30;;;4.10;;
21729;SDS011;11027;51.030;13.812;2023-05-15T11:58:02;8.75;;;3.90;;
21729;SDS011;11027;51.030;13.812;2023-05-15T12:00:28;9.35;;;4.70;;
21729;SDS011;11027;51.030;13.812;2023-05-15T12:02:54;4.50;;;4.10;;
21729;SDS011;11027;51.030;13.812;2023-05-15T12:05:20;8.57;;;4.22;;
21729;SDS011;11027;51.030;13.812;2023-05-15T12:07:45;8.38;;;4.32;;
21729;SDS011;11027;51.030;13.812;2023-05-15T12:10:11;7.47;;;4.47;;
21729;SDS011;11027;51.030;13.812;2023-05-15T12:12:40;7.45;;;4.85;;
21729;SDS011;11027;51.030;13.812;2023-05-15T12:15:11;5.88;;;4.80;;
21729;SDS011;11027;51.030;13.812;2023-05-15T12:17:40;9.95;;;4.88;;
21729;SDS011;11027;51.030;13.812;2023-05-15T12:20:15;10.73;;;5.13;;
21729;SDS011;11027;51.030;13.812;2023-05-15T12:22:41;11.20;;;5.18;;
21729;SDS011;11027;51.030;13.812;2023-05-15T12:25:07;7.28;;;5.63;;
21729;SDS011;11027;51.030;13.812;2023-05-15T12:27:35;7.82;;;5.40;;
21729;SDS011;11027;51.030;13.812;2023-05-15T12:30:01;5.85;;;5.22;;
21729;SDS011;11027;51.030;13.812;2023-05-15T12:32:29;6.07;;;5.43;;
21729;SDS011;11027;51.030;13.812;2023-05-15T12:34:56;8.27;;;5.90;;
21729;SDS011;11027;51.030;13.812;2023-05-15T12:37:21;8.68;;;5.30;;
21729;SDS011;11027;51.030;13.812;2023-05-15T12:39:50;11.23;;;5.68;;
21729;SDS011;11027;51.030;13.812;2023-05-15T12:42:17;11.02;;;5.55;;
21729;SDS011;11027;51.030;13.812;2023-05-15T12:44:43;5.93;;;5.07;;
21729;SDS011;11027;51.030;13.812;2023-05-15T12:47:08;9.02;;;6.53;;
21729;SDS011;11027;51.030;13.812;2023-05-15T12:49:36;7.35;;;5.63;;
21729;SDS011;11027;51.030;13.812;2023-05-15T12:52:08;6.95;;;5.32;;
21729;SDS011;11027;51.030;13.812;2023-05-15T12:54:37;10.95;;;5.05;;
21729;SDS011;11027;51.030;13.812;2023-05-15T12:57:05;8.93;;;4.50;;
21729;SDS011;11027;51.030;13.812;2023-05-15T12:59:30;6.65;;;4.32;;
21729;SDS011;11027;51.030;13.812;2023-05-15T13:01:55;9.43;;;4.30;;
21729;SDS011;11027;51.030;13.812;2023-05-15T13:04:20;9.75;;;4.93;;
21729;SDS011;11027;51.030;13.812;2023-05-15T13:06:46;6.40;;;5.47;;
21729;SDS011;11027;51.030;13.812;2023-05-15T13:09:11;7.75;;;5.07;;
21729;SDS011;11027;51.030;13.812;2023-05-15T13:11:37;6.68;;;4.90;;
21729;SDS011;11027;51.030;13.812;2023-05-15T13:14:08;5.18;;;4.28;;
21729;SDS011;11027;51.030;13.812;2023-05-15T13:16:35;7.43;;;4.03;;
21729;SDS011;11027;51.030;13.812;2023-05-15T13:19:00;5.40;;;4.22;;
21729;SDS011;11027;51.030;13.812;2023-05-15T13:21:25;13.57;;;4.93;;
21729;SDS011;11027;51.030;13.812;2023-05-15T13:23:51;8.07;;;4.80;;
21729;SDS011;11027;51.030;13.812;2023-05-15T13:26:16;8.60;;;4.95;;
21729;SDS011;11027;51.030;13.812;2023-05-15T13:28:42;6.15;;;4.65;;
21729;SDS011;11027;51.030;13.812;2023-05-15T13:31:07;13.45;;;5.45;;
21729;SDS011;11027;51.030;13.812;2023-05-15T13:33:32;9.55;;;4.22;;
21729;SDS011;11027;51.030;13.812;2023-05-15T13:35:59;6.15;;;4.22;;
21729;SDS011;11027;51.030;13.812;2023-05-15T13:38:25;9.18;;;5.05;;
21729;SDS011;11027;51.030;13.812;2023-05-15T13:40:50;5.95;;;4.05;;
21729;SDS011;11027;51.030;13.812;2023-05-15T13:43:15;7.10;;;4.05;;
21729;SDS011;11027;51.030;13.812;2023-05-15T13:45:41;6.03;;;4.43;;
21729;SDS011;11027;51.030;13.812;2023-05-15T13:48:06;5.28;;;4.75;;
21729;SDS011;11027;51.030;13.812;2023-05-15T13:50:31;5.53;;;4.28;;
21729;SDS011;11027;51.030;13.812;2023-05-15T13:52:56;10.82;;;5.35;;
21729;SDS011;11027;51.030;13.812;2023-05-15T13:55:22;7.47;;;5.38;;
21729;SDS011;11027;51.030;13.812;2023-05-15T13:57:47;8.98;;;5.53;;
21729;SDS011;11027;51.030;13.812;2023-05-15T14:00:13;8.65;;;5.53;;
21729;SDS011;11027;51.030;13.812;2023-05-15T14:02:39;9.18;;;5.88;;
21729;SDS011;11027;51.030;13.812;2023-05-15T14:05:07;9.45;;;5.30;;
21729;SDS011;11027;51.030;13.812;2023-05-15T14:07:33;5.55;;;4.72;;
21729;SDS011;11027;51.030;13.812;2023-05-15T14:09:58;10.55;;;4.85;;
21729;SDS011;11027;51.030;13.812;2023-05-15T14:12:23;6.53;;;5.05;;
21729;SDS011;11027;51.030;13.812;2023-05-15T14:14:49;7.53;;;5.10;;
21729;SDS011;11027;51.030;13.812;2023-05-15T14:17:15;6.72;;;5.30;;
21729;SDS011;11027;51.030;13.812;2023-05-15T14:19:40;8.23;;;5.25;;
21729;SDS011;11027;51.030;13.812;2023-05-15T14:22:06;6.15;;;4.75;;
21729;SDS011;11027;51.030;13.812;2023-05-15T14:24:31;8.63;;;4.40;;
21729;SDS011;11027;51.030;13.812;2023-05-15T14:26:56;7.32;;;4.30;;
21729;SDS011;11027;51.030;13.812;2023-05-15T14:29:21;4.97;;;4.47;;
21729;SDS011;11027;51.030;13.812;2023-05-15T14:31:47;6.47;;;4.70;;
21729;SDS011;11027;51.030;13.812;2023-05-15T14:34:12;6.13;;;5.18;;
21729;SDS011;11027;51.030;13.812;2023-05-15T14:36:38;5.95;;;4.68;;
21729;SDS011;11027;51.030;13.812;2023-05-15T14:39:03;7.28;;;5.10;;
21729;SDS011;11027;51.030;13.812;2023-05-15T14:41:28;5.15;;;4.65;;
21729;SDS011;11027;51.030;13.812;2023-05-15T14:43:54;5.78;;;3.92;;
21729;SDS011;11027;51.030;13.812;2023-05-15T14:46:19;6.43;;;4.18;;
21729;SDS011;11027;51.030;13.812;2023-05-15T14:48:44;4.20;;;3.80;;
21729;SDS011;11027;51.030;13.812;2023-05-15T14:51:09;10.32;;;4.10;;